Flight Track Log - Related Links

Times and Time Zones

All times are in EDT time to prevent confusion due to time zone crossing. See the AAL963 flight status page for this flight to view local times or setup timezone preferences in your user account.

Time Position Orientation Groundspeed Altitude Reporting Facility
EDT Latitude Longitude Course Direction KTS MPH feet Rate Location/Type
Mon 09:07:28 PM 32.8340 -97.0310 177° South 204 235 2,500  Level FlightAware ADS-B
Mon 09:07:55 PM 32.8060 -97.0300 178° South 224 258 3,100 1,600 Climbing FlightAware ADS-B
Mon 09:08:28 PM 32.7720 -97.0300 180° South 233 268 4,100 1,759 Climbing FlightAware ADS-B
Mon 09:08:53 PM 32.7440 -97.0300 180° South 246 283 4,800 2,073 Climbing FlightAware ADS-B
Mon 09:09:23 PM 32.7100 -97.0290 179° South 244 281 6,000 2,267 Climbing FlightAware ADS-B
Mon 09:09:38 PM 32.6940 -97.0230 162° South 247 284 6,500 1,733 Climbing FlightAware ADS-B
Mon 09:10:08 PM 32.6650 -97.0090 158° South 256 295 7,300 1,800 Climbing FlightAware ADS-B
Mon 09:10:18 PM 32.6520 -97.0010 153° Southeast 258 297 7,700 2,341 Climbing FlightAware ADS-B
Mon 09:10:49 PM 32.6150 -96.9830 158° South 261 300 8,900 2,308 Climbing FlightAware ADS-B
Mon 09:10:57 PM 32.6070 -96.9780 152° Southeast 261 300 9,200 1,579 Climbing FlightAware ADS-B
Mon 09:11:46 PM 32.5520 -96.9510 158° South 285 328 10,400 1,364 Climbing FlightAware ADS-B
Mon 09:12:25 PM 32.5000 -96.9240 156° South 313 360 11,200 1,500 Climbing FlightAware ADS-B
Mon 09:13:10 PM 32.4410 -96.8940 157° South 324 373 12,500 1,852 Climbing FlightAware ADS-B
Mon 09:13:46 PM 32.3880 -96.8680 157° South 331 381 13,700 1,816 Climbing FlightAware ADS-B
Mon 09:14:26 PM 32.3320 -96.8390 156° South 340 391 14,800 1,214 Climbing FlightAware ADS-B
Mon 09:15:10 PM 32.2640 -96.8080 159° South 368 423 15,400 1,214 Climbing FlightAware ADS-B
Mon 09:15:50 PM 32.1990 -96.7830 162° South 375 432 16,500 1,754 Climbing FlightAware ADS-B
Mon 09:16:15 PM 32.1562 -96.7666 162° South 379 436 17,300 1,714 Climbing FlightAware ADS-B
Mon 09:16:53 PM 32.0918 -96.7421 162° South 381 438 18,300 1,517 Climbing FlightAware ADS-B
Mon 09:17:42 PM 32.0076 -96.7101 162° South 390 449 19,500 1,425 Climbing FlightAware ADS-B
Mon 09:18:13 PM 31.9535 -96.6894 162° South 399 459 20,200 1,286 Climbing FlightAware ADS-B
Mon 09:18:24 PM 31.9343 -96.6804 158° South 404 465 20,400 1,317 Climbing FlightAware ADS-B
Mon 09:18:54 PM 31.8866 -96.6446 147° Southeast 411 473 21,100 1,143 Climbing FlightAware ADS-B
Mon 09:19:06 PM 31.8687 -96.6264 139° Southeast 418 481 21,200 894 Climbing FlightAware ADS-B
Mon 09:19:41 PM 31.8204 -96.5683 134° Southeast 431 496 21,800 1,091 Climbing FlightAware ADS-B
Mon 09:20:12 PM 31.7783 -96.5169 134° Southeast 434 499 22,400 1,364 Climbing FlightAware ADS-B
Mon 09:20:47 PM 31.7294 -96.4574 134° Southeast 435 501 23,300 1,250 Climbing FlightAware ADS-B
Mon 09:21:48 PM 31.6425 -96.3520 134° Southeast 443 510 24,400 1,074 Climbing FlightAware ADS-B
Mon 09:22:22 PM 31.5932 -96.2926 134° Southeast 450 518 25,000 1,031 Climbing FlightAware ADS-B
Mon 09:22:52 PM 31.5492 -96.2395 134° Southeast 456 525 25,500 1,082 Climbing FlightAware ADS-B
Mon 09:23:23 PM 31.5046 -96.1859 134° Southeast 455 524 26,100 1,180 Climbing FlightAware ADS-B
Mon 09:23:53 PM 31.4602 -96.1323 134° Southeast 459 528 26,700 900 Climbing FlightAware ADS-B
Mon 09:24:23 PM 31.4146 -96.0779 134° Southeast 463 533 27,000 857 Climbing FlightAware ADS-B
Mon 09:25:24 PM 31.3240 -95.9678 134° Southeast 467 537 28,000 871 Climbing FlightAware ADS-B
Mon 09:26:27 PM 31.2289 -95.8530 134° Southeast 475 547 28,800 769 Climbing FlightAware ADS-B
Mon 09:28:00 PM 31.0845 -95.6792 134° Southeast 484 557 30,000 734 Climbing FlightAware ADS-B
Mon 09:29:35 PM 30.9355 -95.5010 134° Southeast 491 565 31,100 702 Climbing FlightAware ADS-B
Mon 09:31:08 PM 30.7817 -95.3342 139° Southeast 492 566 32,200 732 Climbing FlightAware ADS-B
Mon 09:31:38 PM 30.7296 -95.2824 139° Southeast 492 566 32,600 545 Climbing FlightAware ADS-B
Mon 09:32:36 PM 30.6294 -95.1848 140° Southeast 492 566 33,000 203 Climbing FlightAware ADS-B
Mon 09:33:36 PM 30.5242 -95.0827 140° Southeast 492 566 33,000  Level FlightAware ADS-B
Mon 09:34:06 PM 30.4717 -95.0317 140° Southeast 506 582 33,000  Level FlightAware ADS-B
Mon 09:34:30 PM 30.4303 -94.9914 140° Southeast 4 5 33,000  Level FlightAware ADS-B
Mon 09:35:00 PM 30.3765 -94.9390 140° Southeast 491 565 33,000  Level FlightAware ADS-B
Mon 09:35:31 PM 30.3218 -94.8805 137° Southeast 490 564 33,000  Level FlightAware ADS-B
Mon 09:38:02 PM 30.0574 -94.6244 140° Southeast 490 564 33,000  Level FlightAware ADS-B
Mon 09:38:32 PM 30.0045 -94.5734 140° Southeast 490 564 33,000  Level FlightAware ADS-B
Mon 09:39:02 PM 29.9512 -94.5222 140° Southeast 490 564 33,000  Level FlightAware ADS-B
Mon 09:39:33 PM 29.8979 -94.4711 140° Southeast 490 564 33,000  Level FlightAware ADS-B
Mon 09:40:33 PM 29.7922 -94.3696 140° Southeast 490 564 33,000  Level FlightAware ADS-B
Mon 09:41:03 PM 29.7450 -94.3107 133° Southeast 490 564 33,000  Level FlightAware ADS-B
Mon 09:41:34 PM 29.7075 -94.2442 123° Southeast 490 564 33,000 -98 Level FlightAware ADS-B
Mon 09:42:04 PM 29.6784 -94.1724 115° Southeast 490 564 32,900  Descending FlightAware ADS-B
Mon 09:42:34 PM 29.6485 -94.1036 117° Southeast 490 564 33,000 98 Climbing FlightAware ADS-B
Mon 09:43:05 PM 29.6033 -94.0447 131° Southeast 490 564 33,000  Level FlightAware ADS-B
Mon 09:44:05 PM 29.4832 -93.9659 154° Southeast 490 564 33,000  Level FlightAware ADS-B
Mon 09:44:36 PM 29.4183 -93.9315 155° Southeast 490 564 33,000  Level FlightAware ADS-B
Mon 09:45:07 PM 29.3550 -93.8979 155° Southeast 490 564 33,000  Level FlightAware ADS-B
Mon 09:45:37 PM 29.2909 -93.8641 155° Southeast 490 564 33,000  Level FlightAware ADS-B
Mon 09:46:15 PM 29.2145 -93.8167 152° Southeast 490 564 33,000  Level FlightAware ADS-B
Mon 09:46:46 PM 29.1582 -93.7690 143° Southeast 490 564 33,000  Level FlightAware ADS-B
Mon 09:47:16 PM 29.1043 -93.7178 140° Southeast 490 564 33,000  Level FlightAware ADS-B
Mon 09:47:46 PM 29.0515 -93.6672 140° Southeast 490 564 33,000  Level FlightAware ADS-B
Mon 09:48:17 PM 28.9964 -93.6160 141° Southeast 490 564 33,000  Level FlightAware ADS-B
Mon 09:53:27 PM 28.2924 -93.4500 168° South 33,000  Level FlightAware ADS-B
Mon 09:54:08 PM 28.1962 -93.4423 176° South 509 586 33,000  Level FlightAware ADS-B
Mon 09:54:57 PM 28.1001 -93.3867 153° Southeast 484 557 33,000  Level FlightAware ADS-B
Mon 09:55:36 PM 28.0479 -93.3065 126° Southeast 486 559 33,000 -53 Level FlightAware ADS-B
Mon 09:56:51 PM 27.9692 -93.1811 126° Southeast 487 560 32,900 -44 Descending Houston Center
Mon 09:57:52 PM 27.8736 -93.0333 126° Southeast 487 560 32,900 16 Level Houston Center
Mon 10:03:12 PM 27.4461 -92.3689 126° Southeast 485 558 33,000 16 Climbing FlightAware ADS-B
Mon 10:03:58 PM 27.4003 -92.2964 126° Southeast 484 557 33,000  Level Houston Center
Mon 10:04:59 PM 27.3211 -92.1761 127° Southeast 479 551 33,000 -49 Level Houston Center
Mon 10:06:00 PM 27.2425 -92.0536 126° Southeast 481 554 32,900 -49 Descending Houston Center
Mon 10:07:01 PM 27.1586 -91.9386 129° Southeast 476 548 32,900 49 Level Houston Center
Mon 10:08:02 PM 27.0508 -91.8461 143° Southeast 484 557 33,000 49 Climbing Houston Center
Mon 10:09:03 PM 26.9408 -91.7606 145° Southeast 483 556 33,000  Level Houston Center
Mon 10:10:04 PM 26.8086 -91.6558 145° Southeast 484 557 33,000 13 Level Houston Center
Mon 10:12:00 PM 26.5981 -91.4844 144° Southeast  Level FlightAware Approximate
Mon 10:19:00 PM 25.8301 -90.8749 145° Southeast  Level FlightAware Approximate
Mon 10:20:00 PM 25.7199 -90.7889 145° Southeast  Level FlightAware Approximate
Mon 10:21:00 PM 25.6097 -90.7031 145° Southeast  Level FlightAware Approximate
Mon 10:22:00 PM 25.4994 -90.6175 145° Southeast  Level FlightAware Approximate
Mon 10:23:00 PM 25.3890 -90.5320 145° Southeast  Level FlightAware Approximate
Mon 10:24:00 PM 25.2786 -90.4466 145° Southeast  Level FlightAware Approximate
Mon 10:25:00 PM 25.1682 -90.3614 145° Southeast  Level FlightAware Approximate
Mon 10:26:00 PM 25.0577 -90.2764 145° Southeast  Level FlightAware Approximate
Mon 10:27:00 PM 24.9472 -90.1915 145° Southeast  Level FlightAware Approximate
Mon 10:28:00 PM 24.8366 -90.1068 145° Southeast  Level FlightAware Approximate
Mon 10:29:00 PM 24.7260 -90.0222 145° Southeast  Level FlightAware Approximate
Mon 10:30:00 PM 24.6153 -89.9378 145° Southeast  Level FlightAware Approximate
Mon 10:31:00 PM 24.5046 -89.8535 145° Southeast  Level FlightAware Approximate
Mon 10:32:00 PM 24.3960 -89.7661 145° Southeast  Level FlightAware Approximate
Mon 10:33:00 PM 24.2857 -89.6813 145° Southeast  Level FlightAware Approximate
Mon 10:34:00 PM 24.1725 -89.6014 148° Southeast  Level FlightAware Approximate
Mon 10:35:00 PM 24.0586 -89.5226 148° Southeast  Level FlightAware Approximate
Mon 10:36:00 PM 23.9478 -89.4389 145° Southeast  Level FlightAware Approximate
Mon 10:37:00 PM 23.8371 -89.3550 145° Southeast  Level FlightAware Approximate
Mon 10:38:00 PM 23.7264 -89.2712 145° Southeast  Level FlightAware Approximate
Mon 10:39:00 PM 23.6157 -89.1875 145° Southeast  Level FlightAware Approximate
Mon 10:39:43 PM 23.6490 -89.0230 145° Southeast 33,000  Level FlightAware ADS-B
Mon 10:42:00 PM 23.3569 -88.9181 162° South  Level FlightAware Approximate
Mon 10:43:00 PM 23.2290 -88.8723 162° South  Level FlightAware Approximate
Mon 10:44:00 PM 23.1327 -88.7699 146° Southeast  Level Estimated
Mon 10:45:00 PM 23.0094 -88.7109 156° South  Level FlightAware Approximate
Mon 10:46:00 PM 22.9130 -88.6088 144° Southeast  Level Estimated
Mon 10:47:00 PM 22.7928 -88.5430 153° Southeast  Level FlightAware Approximate
Mon 10:47:20 PM 22.8560 -88.3520 153° Southeast 33,000  Level FlightAware ADS-B
Mon 10:47:58 PM 22.7920 -88.2950 141° Southeast 33,000 17 Level FlightAware ADS-B
Mon 10:48:38 PM 22.7250 -88.2350 140° Southeast 33,000 17 Level FlightAware ADS-B
Mon 10:50:21 PM 22.5700 -88.0970 141° Southeast 33,000 17 Level FlightAware ADS-B
Mon 10:51:17 PM 22.4550 -87.9940 140° Southeast 33,000 17 Level FlightAware ADS-B
Mon 10:52:03 PM 22.3780 -87.9260 141° Southeast 33,000 17 Level FlightAware ADS-B
Mon 10:53:01 PM 22.2730 -87.8330 141° Southeast 33,000 17 Level FlightAware ADS-B
Mon 10:53:57 PM 22.1820 -87.7520 140° Southeast 33,000 18 Level FlightAware ADS-B
Mon 10:54:41 PM 22.1130 -87.6920 141° Southeast 33,000 18 Level FlightAware ADS-B
Mon 10:55:34 PM 22.0230 -87.6130 141° Southeast 33,000 18 Level FlightAware ADS-B
Mon 10:56:19 PM 21.9340 -87.5340 141° Southeast 33,000 18 Level FlightAware ADS-B
Mon 10:57:12 PM 21.8440 -87.4550 141° Southeast 33,000 18 Level FlightAware ADS-B
Mon 10:57:50 PM 21.7860 -87.4040 141° Southeast 33,000 18 Level FlightAware ADS-B
Mon 10:58:32 PM 21.7040 -87.3330 141° Southeast 33,000 18 Level FlightAware ADS-B
Mon 10:59:14 PM 21.6310 -87.2690 141° Southeast 33,000 18 Level FlightAware ADS-B
Mon 10:59:59 PM 21.5490 -87.1970 141° Southeast 33,000 19 Level FlightAware ADS-B
Mon 11:00:41 PM 21.4740 -87.1320 141° Southeast 33,000 19 Level FlightAware ADS-B
Mon 11:01:22 PM 21.4030 -87.0700 141° Southeast 33,000 19 Level FlightAware ADS-B
Mon 11:02:01 PM 21.3320 -87.0090 141° Southeast 33,000 19 Level FlightAware ADS-B
Mon 11:02:41 PM 21.2620 -86.9470 140° Southeast 33,000 19 Level FlightAware ADS-B
Mon 11:03:21 PM 21.1910 -86.8870 142° Southeast 33,000 19 Level FlightAware ADS-B
Mon 11:03:57 PM 21.1270 -86.8310 141° Southeast 33,000 19 Level FlightAware ADS-B
Mon 11:04:41 PM 21.0500 -86.7640 141° Southeast 33,000 19 Level FlightAware ADS-B
Mon 11:05:21 PM 20.9790 -86.7030 141° Southeast 33,000 20 Level FlightAware ADS-B
Mon 11:05:57 PM 20.9140 -86.6470 141° Southeast 33,000 20 Level FlightAware ADS-B
Mon 11:06:41 PM 20.8360 -86.5800 141° Southeast 33,000 20 Level FlightAware ADS-B
Mon 11:07:21 PM 20.7640 -86.5180 141° Southeast 33,000 20 Level FlightAware ADS-B
Mon 11:08:05 PM 20.6860 -86.4520 142° Southeast 33,000 20 Level FlightAware ADS-B
Mon 11:08:45 PM 20.6140 -86.3890 141° Southeast 33,000 20 Level FlightAware ADS-B
Mon 11:09:27 PM 20.5400 -86.3260 141° Southeast 33,000 20 Level FlightAware ADS-B
Mon 11:12:00 PM 20.2711 -86.0981 141° Southeast  Level FlightAware Approximate
Mon 11:12:37 PM 20.1960 -86.0330 141° Southeast 33,000  Level FlightAware ADS-B
Mon 11:13:17 PM 20.1220 -85.9700 141° Southeast 33,000 21 Level FlightAware ADS-B
Mon 11:14:01 PM 20.0430 -85.9030 141° Southeast 33,000 21 Level FlightAware ADS-B
Mon 11:14:42 PM 19.9730 -85.8400 140° Southeast 33,000 22 Level FlightAware ADS-B
Mon 11:15:23 PM 19.9020 -85.7720 138° Southeast 33,000 22 Level FlightAware ADS-B
Mon 11:15:59 PM 19.8390 -85.7120 138° Southeast 33,000 22 Level FlightAware ADS-B
Mon 11:16:39 PM 19.7710 -85.6490 139° Southeast 33,000 22 Level FlightAware ADS-B
Mon 11:18:27 PM 19.5870 -85.4760 138° Southeast 33,000 22 Level FlightAware ADS-B
Mon 11:19:21 PM 19.4920 -85.3870 139° Southeast 33,300 23 Climbing FlightAware ADS-B
Mon 11:19:57 PM 19.4310 -85.3300 139° Southeast 33,800 19 Climbing FlightAware ADS-B
Mon 11:20:37 PM 19.3610 -85.2640 138° Southeast 34,200 14 Climbing FlightAware ADS-B
Mon 11:21:23 PM 19.2840 -85.1930 139° Southeast 34,800 Climbing FlightAware ADS-B
Mon 11:23:00 PM 19.1204 -85.0409 139° Southeast  Level FlightAware Approximate
Mon 11:24:00 PM 19.0191 -84.9470 139° Southeast  Level FlightAware Approximate
Mon 11:25:00 PM 18.9178 -84.8532 139° Southeast  Level FlightAware Approximate
Mon 11:26:00 PM 18.8164 -84.7595 139° Southeast  Level FlightAware Approximate
Mon 11:27:00 PM 18.7150 -84.6659 139° Southeast  Level FlightAware Approximate
Mon 11:28:00 PM 18.6135 -84.5724 139° Southeast  Level FlightAware Approximate
Mon 11:29:00 PM 18.5119 -84.4792 141° Southeast  Level FlightAware Approximate
Mon 11:30:00 PM 18.4074 -84.3897 141° Southeast  Level FlightAware Approximate
Mon 11:31:00 PM 18.3049 -84.2976 139° Southeast  Level FlightAware Approximate
Mon 11:32:00 PM 18.2025 -84.2055 139° Southeast  Level FlightAware Approximate
Mon 11:33:00 PM 18.1000 -84.1135 140° Southeast  Level FlightAware Approximate
Mon 11:34:00 PM 17.9976 -84.0216 140° Southeast  Level FlightAware Approximate
Mon 11:35:00 PM 17.8951 -83.9298 140° Southeast  Level FlightAware Approximate
Mon 11:36:00 PM 17.7925 -83.8382 140° Southeast  Level FlightAware Approximate
Mon 11:37:00 PM 17.6899 -83.7466 140° Southeast  Level FlightAware Approximate
Mon 11:38:00 PM 17.5872 -83.6551 140° Southeast  Level FlightAware Approximate
Mon 11:39:00 PM 17.4845 -83.5637 140° Southeast  Level FlightAware Approximate
Mon 11:40:00 PM 17.3818 -83.4725 140° Southeast  Level FlightAware Approximate
Mon 11:41:00 PM 17.2790 -83.3813 140° Southeast  Level FlightAware Approximate
Mon 11:42:00 PM 17.1762 -83.2903 140° Southeast  Level FlightAware Approximate
Mon 11:43:00 PM 17.0733 -83.1993 140° Southeast  Level FlightAware Approximate
Mon 11:44:00 PM 16.9704 -83.1084 140° Southeast  Level FlightAware Approximate
Mon 11:45:00 PM 16.8675 -83.0177 140° Southeast  Level FlightAware Approximate
Mon 11:46:00 PM 16.7645 -82.9270 140° Southeast  Level FlightAware Approximate
Mon 11:47:00 PM 16.6615 -82.8364 140° Southeast  Level FlightAware Approximate
Mon 11:48:00 PM 16.5584 -82.7460 140° Southeast  Level FlightAware Approximate
Mon 11:49:00 PM 16.4553 -82.6556 140° Southeast  Level FlightAware Approximate
Mon 11:50:00 PM 16.3522 -82.5653 140° Southeast  Level FlightAware Approximate
Mon 11:51:00 PM 16.2490 -82.4751 140° Southeast  Level FlightAware Approximate
Mon 11:52:00 PM 16.1458 -82.3850 140° Southeast  Level FlightAware Approximate
Mon 11:53:00 PM 16.0426 -82.2951 140° Southeast  Level FlightAware Approximate
Mon 11:54:00 PM 15.9393 -82.2052 140° Southeast  Level FlightAware Approximate
Mon 11:55:00 PM 15.8364 -82.1147 140° Southeast  Level FlightAware Approximate
Mon 11:56:00 PM 15.7336 -82.0244 140° Southeast  Level FlightAware Approximate
Mon 11:57:00 PM 15.6307 -81.9341 140° Southeast  Level FlightAware Approximate
Mon 11:58:00 PM 15.5278 -81.8439 140° Southeast  Level FlightAware Approximate
Mon 11:59:00 PM 15.4249 -81.7538 140° Southeast  Level FlightAware Approximate
Tue 12:00:00 AM 15.3219 -81.6638 140° Southeast  Level FlightAware Approximate
Tue 12:01:00 AM 15.2188 -81.5739 140° Southeast  Level FlightAware Approximate
Tue 12:02:00 AM 15.1158 -81.4841 140° Southeast  Level FlightAware Approximate
Tue 12:03:00 AM 15.0127 -81.3944 140° Southeast  Level FlightAware Approximate
Tue 12:04:00 AM 14.9083 -81.3063 141° Southeast  Level FlightAware Approximate
Tue 12:05:00 AM 14.8037 -81.2185 141° Southeast  Level FlightAware Approximate
Tue 12:06:00 AM 14.6991 -81.1308 141° Southeast  Level FlightAware Approximate
Tue 12:07:00 AM 14.5945 -81.0432 141° Southeast  Level FlightAware Approximate
Tue 12:08:00 AM 14.4898 -80.9557 141° Southeast  Level FlightAware Approximate
Tue 12:09:00 AM 14.3851 -80.8682 141° Southeast  Level FlightAware Approximate
Tue 12:10:00 AM 14.2804 -80.7808 140° Southeast  Level FlightAware Approximate
Tue 12:11:00 AM 14.1771 -80.6916 140° Southeast  Level FlightAware Approximate
Tue 12:12:00 AM 14.0738 -80.6025 140° Southeast  Level FlightAware Approximate
Tue 12:13:00 AM 13.9705 -80.5135 140° Southeast  Level FlightAware Approximate
Tue 12:14:00 AM 13.8671 -80.4246 140° Southeast  Level FlightAware Approximate
Tue 12:15:00 AM 13.7637 -80.3357 140° Southeast  Level FlightAware Approximate
Tue 12:16:00 AM 13.6603 -80.2469 140° Southeast  Level FlightAware Approximate
Tue 12:17:00 AM 13.5567 -80.1583 141° Southeast  Level FlightAware Approximate
Tue 12:18:00 AM 13.4526 -80.0705 141° Southeast  Level FlightAware Approximate
Tue 12:19:00 AM 13.3484 -79.9827 141° Southeast  Level FlightAware Approximate
Tue 12:20:00 AM 13.2442 -79.8951 141° Southeast  Level FlightAware Approximate
Tue 12:21:00 AM 13.1400 -79.8075 141° Southeast  Level FlightAware Approximate
Tue 12:22:00 AM 13.0357 -79.7200 141° Southeast  Level FlightAware Approximate
Tue 12:23:00 AM 12.9314 -79.6326 141° Southeast  Level FlightAware Approximate
Tue 12:24:00 AM 12.8271 -79.5452 141° Southeast  Level FlightAware Approximate
Tue 12:25:00 AM 12.7227 -79.4579 141° Southeast  Level FlightAware Approximate
Tue 12:26:00 AM 12.6183 -79.3707 141° Southeast  Level FlightAware Approximate
Tue 12:27:00 AM 12.5139 -79.2835 141° Southeast  Level FlightAware Approximate
Tue 12:28:00 AM 12.4095 -79.1965 141° Southeast  Level FlightAware Approximate
Tue 12:29:00 AM 12.3050 -79.1095 141° Southeast  Level FlightAware Approximate
Tue 12:30:00 AM 12.2005 -79.0225 141° Southeast  Level FlightAware Approximate
Tue 12:31:00 AM 12.0961 -78.9356 141° Southeast  Level FlightAware Approximate
Tue 12:32:00 AM 11.9923 -78.8492 141° Southeast  Level FlightAware Approximate
Tue 12:33:00 AM 11.8885 -78.7628 141° Southeast  Level FlightAware Approximate
Tue 12:34:00 AM 11.7846 -78.6766 141° Southeast  Level FlightAware Approximate
Tue 12:35:00 AM 11.6808 -78.5904 141° Southeast  Level FlightAware Approximate
Tue 12:36:00 AM 11.5769 -78.5042 141° Southeast  Level FlightAware Approximate
Tue 12:37:00 AM 11.4730 -78.4182 141° Southeast  Level FlightAware Approximate
Tue 12:38:00 AM 11.3691 -78.3321 141° Southeast  Level FlightAware Approximate
Tue 12:39:00 AM 11.2651 -78.2462 141° Southeast  Level FlightAware Approximate
Tue 12:40:00 AM 11.1611 -78.1603 141° Southeast  Level FlightAware Approximate
Tue 12:41:00 AM 11.0571 -78.0745 141° Southeast  Level FlightAware Approximate
Tue 12:42:00 AM 10.9531 -77.9887 141° Southeast  Level FlightAware Approximate
Tue 12:43:00 AM 10.8490 -77.9030 141° Southeast  Level FlightAware Approximate
Tue 12:44:00 AM 10.7449 -77.8173 141° Southeast  Level FlightAware Approximate
Tue 12:45:00 AM 10.6410 -77.7315 141° Southeast  Level FlightAware Approximate
Tue 12:46:00 AM 10.5375 -77.6456 141° Southeast  Level FlightAware Approximate
Tue 12:46:57 AM 10.5320 -77.1600 141° Southeast 484 557 35,000  Level FlightAware ADS-B
Tue 12:47:00 AM 10.4340 -77.5598 141° Southeast  Level FlightAware Approximate
Tue 12:47:52 AM 10.4240 -77.1020 152° Southeast 487 560 35,000  Level FlightAware ADS-B
Tue 12:48:00 AM 10.3304 -77.4740 141° Southeast  Level FlightAware Approximate
Tue 12:48:37 AM 10.3340 -77.0590 155° Southeast 486 559 35,000  Level FlightAware ADS-B
Tue 12:49:17 AM 10.2510 -77.0290 160° South 483 556 35,000  Level FlightAware ADS-B
Tue 12:49:57 AM 10.1690 -76.9990 160° South 482 555 35,000  Level FlightAware ADS-B
Tue 12:50:42 AM 10.0750 -76.9660 161° South 483 556 35,000  Level FlightAware ADS-B
Tue 12:51:25 AM 10.0040 -76.9440 163° South 483 556 35,000  Level FlightAware ADS-B
Tue 12:52:01 AM 9.9390 -76.9240 163° South 483 556 35,000  Level FlightAware ADS-B
Tue 12:52:49 AM 9.8510 -76.8970 163° South 483 556 35,000  Level FlightAware ADS-B
Tue 12:53:25 AM 9.7860 -76.8770 163° South 483 556 35,000  Level FlightAware ADS-B
Tue 12:54:13 AM 9.6990 -76.8500 163° South 483 556 35,000  Level FlightAware ADS-B
Tue 12:54:49 AM 9.6330 -76.8290 163° South 483 556 35,000  Level FlightAware ADS-B
Tue 12:55:37 AM 9.5460 -76.8020 163° South 483 556 35,000  Level FlightAware ADS-B
Tue 12:56:13 AM 9.4810 -76.7820 163° South 483 556 35,000  Level FlightAware ADS-B
Tue 12:57:01 AM 9.3940 -76.7550 163° South 483 556 35,000  Level FlightAware ADS-B
Tue 12:57:42 AM 9.1630 -76.7290 174° South 484 557 35,000  Level FlightAware ADS-B
Tue 12:58:22 AM 9.0810 -76.7060 165° South 487 560 35,000  Level FlightAware ADS-B
Tue 12:59:07 AM 8.9860 -76.6690 159° South 488 562 35,000  Level FlightAware ADS-B
Tue 12:59:47 AM 8.9050 -76.6230 151° Southeast 485 558 35,000  Level FlightAware ADS-B
Tue 01:00:32 AM 8.8250 -76.5600 142° Southeast 491 565 35,000  Level FlightAware ADS-B
Tue 01:01:12 AM 8.7650 -76.4960 133° Southeast 490 564 35,000  Level FlightAware ADS-B
Tue 01:01:57 AM 8.7050 -76.4100 125° Southeast 489 563 35,000  Level FlightAware ADS-B
Tue 01:02:27 AM 8.6760 -76.3540 118° Southeast 488 562 35,000  Level FlightAware ADS-B
Tue 01:03:12 AM 8.6320 -76.2590 115° Southeast 488 562 35,000  Level FlightAware ADS-B
Tue 01:04:02 AM 8.5830 -76.1550 115° Southeast 491 565 35,000  Level FlightAware ADS-B
Tue 01:04:42 AM 8.5450 -76.0740 115° Southeast 490 564 35,000  Level FlightAware ADS-B
Tue 01:05:17 AM 8.5120 -76.0050 116° Southeast 490 564 35,000  Level FlightAware ADS-B
Tue 01:05:57 AM 8.4700 -75.9160 116° Southeast 490 564 35,000  Level FlightAware ADS-B
Tue 01:06:57 AM 8.4100 -75.7910 116° Southeast 493 567 35,000  Level FlightAware ADS-B
Tue 01:07:37 AM 8.3780 -75.7200 114° Southeast 493 567 35,000  Level FlightAware ADS-B
Tue 01:08:29 AM 8.3310 -75.6210 116° Southeast 495 570 35,000  Level FlightAware ADS-B
Tue 01:08:53 AM 8.3110 -75.5780 115° Southeast 495 570 35,000  Level FlightAware ADS-B
Tue 01:09:37 AM 8.2550 -75.4620 116° Southeast 490 564 35,000  Level FlightAware ADS-B
Tue 01:10:18 AM 8.2170 -75.3810 115° Southeast 491 565 35,000  Level FlightAware ADS-B
Tue 01:10:57 AM 8.1800 -75.3030 116° Southeast 490 564 35,000  Level FlightAware ADS-B
Tue 01:11:42 AM 8.1360 -75.2100 116° Southeast 491 565 35,000  Level FlightAware ADS-B
Tue 01:12:17 AM 8.1040 -75.1440 116° Southeast 488 562 35,000  Level FlightAware ADS-B
Tue 01:12:57 AM 8.0640 -75.0580 115° Southeast 492 566 35,000  Level FlightAware ADS-B
Tue 01:13:42 AM 8.0220 -74.9700 116° Southeast 495 570 35,000  Level FlightAware ADS-B
Tue 01:14:17 AM 7.9860 -74.9020 118° Southeast 479 551 35,000  Level FlightAware ADS-B
Tue 01:14:57 AM 7.9510 -74.8280 116° Southeast 478 550 35,000  Level FlightAware ADS-B
Tue 01:15:37 AM 7.9110 -74.7450 116° Southeast 477 549 35,000  Level FlightAware ADS-B
Tue 01:16:32 AM 7.8570 -74.6310 116° Southeast 472 543 35,000  Level FlightAware ADS-B
Tue 01:17:17 AM 7.8140 -74.5420 116° Southeast 471 542 35,000  Level FlightAware ADS-B
Tue 01:17:57 AM 7.7660 -74.4760 126° Southeast 473 544 35,000  Level FlightAware ADS-B
Tue 01:18:42 AM 7.6890 -74.4040 137° Southeast 474 545 35,000  Level FlightAware ADS-B
Tue 01:19:22 AM 7.6240 -74.3460 139° Southeast 473 544 35,000  Level FlightAware ADS-B
Tue 01:19:57 AM 7.5670 -74.2940 138° Southeast 472 543 35,000  Level FlightAware ADS-B
Tue 01:20:42 AM 7.4910 -74.2320 141° Southeast 474 545 35,000  Level FlightAware ADS-B
Tue 01:21:22 AM 7.4150 -74.1860 149° Southeast 475 547 35,000  Level FlightAware ADS-B
Tue 01:21:57 AM 7.3510 -74.1480 150° Southeast 474 545 35,000  Level FlightAware ADS-B
Tue 01:22:42 AM 7.2750 -74.0920 144° Southeast 487 560 35,000  Level FlightAware ADS-B
Tue 01:23:22 AM 7.1930 -74.0430 149° Southeast 486 559 35,000  Level FlightAware ADS-B
Tue 01:24:02 AM 7.1170 -73.9970 149° Southeast 485 558 35,000  Level FlightAware ADS-B
Tue 01:24:42 AM 7.0420 -73.9530 150° Southeast 483 556 35,000  Level FlightAware ADS-B
Tue 01:25:27 AM 6.9570 -73.9020 149° Southeast 486 559 35,000 -19 Level FlightAware ADS-B
Tue 01:26:17 AM 6.8620 -73.8460 150° Southeast 35,000 -19 Level FlightAware ADS-B
Tue 01:26:59 AM 6.7810 -73.7980 150° Southeast 35,000 -20 Level FlightAware ADS-B
Tue 01:27:43 AM 6.6990 -73.7480 149° Southeast 35,000 -20 Level FlightAware ADS-B
Tue 01:28:23 AM 6.6210 -73.7020 150° Southeast 35,000 -20 Level FlightAware ADS-B
Tue 01:28:59 AM 6.5530 -73.6620 150° Southeast 35,000 -20 Level FlightAware ADS-B
Tue 01:29:43 AM 6.4700 -73.6120 149° Southeast 35,000 -20 Level FlightAware ADS-B
Tue 01:30:23 AM 6.3930 -73.5660 149° Southeast 35,000 -20 Level FlightAware ADS-B
Tue 01:31:04 AM 6.3160 -73.5200 149° Southeast 35,000 -20 Level FlightAware ADS-B
Tue 01:31:47 AM 6.2330 -73.4710 150° Southeast 35,000 -20 Level FlightAware ADS-B
Tue 01:32:27 AM 6.1570 -73.4260 150° Southeast 35,000 -20 Level FlightAware ADS-B
Tue 01:33:12 AM 6.0740 -73.3770 150° Southeast 35,000 -20 Level FlightAware ADS-B
Tue 01:35:00 AM 5.8924 -73.2198 139° Southeast  Level Estimated
Tue 01:36:00 AM 5.7916 -73.1325 139° Southeast  Level Estimated
Tue 01:37:00 AM 5.6907 -73.0452 139° Southeast  Level Estimated
Tue 01:37:06 AM 5.6210 -73.1090 139° Southeast 35,000  Level FlightAware ADS-B
Tue 01:37:52 AM 5.5340 -73.0570 149° Southeast 35,000 -20 Level FlightAware ADS-B
Tue 01:38:32 AM 5.4570 -73.0110 149° Southeast 35,000 -20 Level FlightAware ADS-B
Tue 01:39:16 AM 5.3710 -72.9610 150° Southeast 35,000 -20 Level FlightAware ADS-B
Tue 01:39:56 AM 5.2940 -72.9150 149° Southeast 35,000 -20 Level FlightAware ADS-B
Tue 01:40:31 AM 5.2280 -72.8760 150° Southeast 35,000 -21 Level FlightAware ADS-B
Tue 01:41:16 AM 5.1400 -72.8250 150° Southeast 35,000 -21 Level FlightAware ADS-B
Tue 01:43:00 AM 4.9657 -72.6733 139° Southeast  Level Estimated
Tue 01:44:00 AM 4.8651 -72.5858 139° Southeast  Level Estimated
Tue 01:45:00 AM 4.7645 -72.4983 139° Southeast  Level Estimated
Tue 01:46:00 AM 4.6639 -72.4108 139° Southeast  Level Estimated
Tue 01:47:00 AM 4.5632 -72.3234 139° Southeast  Level Estimated
Tue 01:48:00 AM 4.4626 -72.2360 139° Southeast  Level Estimated
Tue 01:49:00 AM 4.3619 -72.1486 139° Southeast  Level Estimated
Tue 01:50:00 AM 4.2613 -72.0613 139° Southeast  Level Estimated
Tue 01:51:00 AM 4.1606 -71.9740 139° Southeast  Level Estimated
Tue 01:52:00 AM 4.0599 -71.8867 139° Southeast  Level Estimated
Tue 01:53:00 AM 3.9592 -71.7994 139° Southeast  Level Estimated
Tue 01:54:00 AM 3.8585 -71.7121 139° Southeast  Level Estimated
Tue 01:55:00 AM 3.7580 -71.6250 139° Southeast  Level Estimated
Tue 01:56:00 AM 3.6575 -71.5379 139° Southeast  Level Estimated
Tue 01:57:00 AM 3.5569 -71.4509 139° Southeast  Level Estimated
Tue 01:58:00 AM 3.4564 -71.3639 139° Southeast  Level Estimated
Tue 01:59:00 AM 3.3558 -71.2768 139° Southeast  Level Estimated
Tue 02:00:00 AM 3.2553 -71.1899 139° Southeast  Level Estimated
Tue 02:01:00 AM 3.1547 -71.1029 139° Southeast  Level Estimated
Tue 02:02:00 AM 3.0541 -71.0159 139° Southeast  Level Estimated
Tue 02:03:00 AM 2.9535 -70.9290 139° Southeast  Level Estimated
Tue 02:04:00 AM 2.8529 -70.8420 139° Southeast  Level Estimated
Tue 02:05:00 AM 2.7523 -70.7551 139° Southeast  Level Estimated
Tue 02:06:00 AM 2.6517 -70.6682 139° Southeast  Level Estimated
Tue 02:07:00 AM 2.5511 -70.5814 139° Southeast  Level Estimated
Tue 02:08:00 AM 2.4505 -70.4945 139° Southeast  Level Estimated
Tue 02:09:00 AM 2.3499 -70.4076 139° Southeast  Level Estimated
Tue 02:10:00 AM 2.2492 -70.3208 139° Southeast  Level Estimated
Tue 02:11:00 AM 2.1486 -70.2340 139° Southeast  Level Estimated
Tue 02:12:00 AM 2.0480 -70.1471 139° Southeast  Level Estimated
Tue 02:13:00 AM 1.9473 -70.0603 139° Southeast  Level Estimated
Tue 02:14:00 AM 1.8467 -69.9735 139° Southeast  Level Estimated
Tue 02:15:00 AM 1.7460 -69.8867 139° Southeast  Level Estimated
Tue 02:16:00 AM 1.6453 -69.8000 139° Southeast  Level Estimated
Tue 02:17:00 AM 1.5445 -69.7130 139° Southeast  Level Estimated
Tue 02:18:00 AM 1.4437 -69.6261 139° Southeast  Level Estimated
Tue 02:19:00 AM 1.3428 -69.5392 139° Southeast  Level Estimated
Tue 02:20:00 AM 1.2420 -69.4523 139° Southeast  Level Estimated
Tue 02:21:00 AM 1.1411 -69.3654 139° Southeast  Level Estimated
Tue 02:22:00 AM 1.0402 -69.2785 139° Southeast  Level Estimated
Tue 02:23:00 AM 0.9394 -69.1916 139° Southeast  Level Estimated
Tue 02:24:00 AM 0.8385 -69.1048 139° Southeast  Level Estimated
Tue 02:25:00 AM 0.7377 -69.0179 139° Southeast  Level Estimated
Tue 02:26:00 AM 0.6368 -68.9310 139° Southeast  Level Estimated
Tue 02:27:00 AM 0.5359 -68.8441 139° Southeast  Level Estimated
Tue 02:28:00 AM 0.4351 -68.7573 139° Southeast  Level Estimated
Tue 02:29:00 AM 0.3342 -68.6704 139° Southeast  Level Estimated
Tue 02:30:00 AM 0.2333 -68.5835 139° Southeast  Level Estimated
Tue 02:31:00 AM 0.1324 -68.4967 139° Southeast  Level Estimated
Tue 02:32:00 AM 0.0316 -68.4098 139° Southeast  Level Estimated
Tue 02:33:00 AM -0.0693 -68.3230 139° Southeast  Level Estimated
Tue 02:34:00 AM -0.1702 -68.2361 139° Southeast  Level Estimated
Tue 02:35:00 AM -0.2710 -68.1492 139° Southeast  Level Estimated
Tue 02:36:00 AM -0.3719 -68.0624 139° Southeast  Level Estimated
Tue 02:37:00 AM -0.4728 -67.9755 139° Southeast  Level Estimated
Tue 02:38:00 AM -0.5737 -67.8886 139° Southeast  Level Estimated
Tue 02:39:00 AM -0.6745 -67.8018 139° Southeast  Level Estimated
Tue 02:40:00 AM -0.7754 -67.7149 139° Southeast  Level Estimated
Tue 02:41:00 AM -0.8762 -67.6280 139° Southeast  Level Estimated
Tue 02:42:00 AM -0.9771 -67.5412 139° Southeast  Level Estimated
Tue 02:43:00 AM -1.0780 -67.4543 139° Southeast  Level Estimated
Tue 02:44:00 AM -1.1788 -67.3674 139° Southeast  Level Estimated
Tue 02:45:00 AM -1.2797 -67.2805 139° Southeast  Level Estimated
Tue 02:46:00 AM -1.3805 -67.1936 139° Southeast  Level Estimated
Tue 02:47:00 AM -1.4814 -67.1067 139° Southeast  Level Estimated
Tue 02:48:00 AM -1.5822 -67.0197 139° Southeast  Level Estimated
Tue 02:49:00 AM -1.6831 -66.9328 139° Southeast  Level Estimated
Tue 02:50:00 AM -1.7839 -66.8459 139° Southeast  Level Estimated
Tue 02:51:00 AM -1.8845 -66.7591 139° Southeast  Level Estimated
Tue 02:52:00 AM -1.9852 -66.6723 139° Southeast  Level Estimated
Tue 02:53:00 AM -2.0858 -66.5855 139° Southeast  Level Estimated
Tue 02:54:00 AM -2.1865 -66.4986 139° Southeast  Level Estimated
Tue 02:55:00 AM -2.2871 -66.4118 139° Southeast  Level Estimated
Tue 02:56:00 AM -2.3877 -66.3250 139° Southeast  Level Estimated
Tue 02:57:00 AM -2.4883 -66.2381 139° Southeast  Level Estimated
Tue 02:58:00 AM -2.5890 -66.1512 139° Southeast  Level Estimated
Tue 02:59:00 AM -2.6896 -66.0643 139° Southeast  Level Estimated
Tue 03:00:00 AM -2.7902 -65.9774 139° Southeast  Level Estimated
Tue 03:01:00 AM -2.8908 -65.8905 139° Southeast  Level Estimated
Tue 03:02:00 AM -2.9914 -65.8036 139° Southeast  Level Estimated
Tue 03:03:00 AM -3.0920 -65.7166 139° Southeast  Level Estimated
Tue 03:04:00 AM -3.1925 -65.6297 139° Southeast  Level Estimated
Tue 03:05:00 AM -3.2931 -65.5427 139° Southeast  Level Estimated
Tue 03:06:00 AM -3.3937 -65.4557 139° Southeast  Level Estimated
Tue 03:07:00 AM -3.4942 -65.3687 139° Southeast  Level Estimated
Tue 03:08:00 AM -3.5948 -65.2816 139° Southeast  Level Estimated
Tue 03:09:00 AM -3.6953 -65.1946 139° Southeast  Level Estimated
Tue 03:10:00 AM -3.7959 -65.1075 139° Southeast  Level Estimated
Tue 03:11:00 AM -3.8964 -65.0204 139° Southeast  Level Estimated
Tue 03:12:00 AM -3.9969 -64.9333 139° Southeast  Level Estimated
Tue 03:13:00 AM -4.0974 -64.8461 139° Southeast  Level Estimated
Tue 03:14:00 AM -4.1979 -64.7590 139° Southeast  Level Estimated
Tue 03:15:00 AM -4.2984 -64.6718 139° Southeast  Level Estimated
Tue 03:16:00 AM -4.3988 -64.5846 139° Southeast  Level Estimated
Tue 03:17:00 AM -4.4993 -64.4973 139° Southeast  Level Estimated
Tue 03:18:00 AM -4.5997 -64.4101 139° Southeast  Level Estimated
Tue 03:19:00 AM -4.7002 -64.3228 139° Southeast  Level Estimated
Tue 03:20:00 AM -4.8006 -64.2355 139° Southeast  Level Estimated
Tue 03:21:00 AM -4.9010 -64.1482 139° Southeast  Level Estimated
Tue 03:22:00 AM -5.0014 -64.0608 139° Southeast  Level Estimated
Tue 03:23:00 AM -5.1018 -63.9734 139° Southeast  Level Estimated
Tue 03:24:00 AM -5.2022 -63.8860 139° Southeast  Level Estimated
Tue 03:25:00 AM -5.3026 -63.7986 139° Southeast  Level Estimated
Tue 03:26:00 AM -5.4030 -63.7111 139° Southeast  Level Estimated
Tue 03:27:00 AM -5.5033 -63.6236 139° Southeast  Level Estimated
Tue 03:28:00 AM -5.6037 -63.5361 139° Southeast  Level Estimated
Tue 03:29:00 AM -5.7040 -63.4486 139° Southeast  Level Estimated
Tue 03:30:00 AM -5.8043 -63.3610 139° Southeast  Level Estimated
Tue 03:31:00 AM -5.9046 -63.2734 139° Southeast  Level Estimated
Tue 03:32:00 AM -6.0049 -63.1857 139° Southeast  Level Estimated
Tue 03:33:00 AM -6.1051 -63.0980 139° Southeast  Level Estimated
Tue 03:34:00 AM -6.2054 -63.0103 139° Southeast  Level Estimated
Tue 03:35:00 AM -6.3056 -62.9226 139° Southeast  Level Estimated
Tue 03:36:00 AM -6.4059 -62.8348 139° Southeast  Level Estimated
Tue 03:37:00 AM -6.5061 -62.7470 139° Southeast  Level Estimated
Tue 03:38:00 AM -6.6063 -62.6591 139° Southeast  Level Estimated
Tue 03:39:00 AM -6.7064 -62.5713 139° Southeast  Level Estimated
Tue 03:40:00 AM -6.8066 -62.4833 139° Southeast  Level Estimated
Tue 03:41:00 AM -6.9066 -62.3955 139° Southeast  Level Estimated
Tue 03:42:00 AM -7.0065 -62.3077 139° Southeast  Level Estimated
Tue 03:43:00 AM -7.1065 -62.2198 139° Southeast  Level Estimated
Tue 03:44:00 AM -7.2064 -62.1319 139° Southeast  Level Estimated
Tue 03:45:00 AM -7.3063 -62.0440 139° Southeast  Level Estimated
Tue 03:46:00 AM -7.4062 -61.9560 139° Southeast  Level Estimated
Tue 03:47:00 AM -7.5061 -61.8679 139° Southeast  Level Estimated
Tue 03:48:00 AM -7.6059 -61.7799 139° Southeast  Level Estimated
Tue 03:49:00 AM -7.7058 -61.6918 139° Southeast  Level Estimated
Tue 03:50:00 AM -7.8056 -61.6036 139° Southeast  Level Estimated
Tue 03:51:00 AM -7.9052 -61.5156 139° Southeast  Level Estimated
Tue 03:52:00 AM -8.0048 -61.4275 139° Southeast  Level Estimated
Tue 03:53:00 AM -8.1044 -61.3394 139° Southeast  Level Estimated
Tue 03:54:00 AM -8.2040 -61.2512 139° Southeast  Level Estimated
Tue 03:55:00 AM -8.3035 -61.1630 139° Southeast  Level Estimated
Tue 03:56:00 AM -8.4031 -61.0747 139° Southeast  Level Estimated
Tue 03:57:00 AM -8.5026 -60.9864 139° Southeast  Level Estimated
Tue 03:58:00 AM -8.6020 -60.8981 139° Southeast  Level Estimated
Tue 03:59:00 AM -8.7015 -60.8097 139° Southeast  Level Estimated
Tue 04:00:00 AM -8.8010 -60.7212 139° Southeast  Level Estimated
Tue 04:01:00 AM -8.9004 -60.6327 139° Southeast  Level Estimated
Tue 04:02:00 AM -8.9998 -60.5442 139° Southeast  Level Estimated
Tue 04:03:00 AM -9.0992 -60.4556 139° Southeast  Level Estimated
Tue 04:04:00 AM -9.1986 -60.3670 139° Southeast  Level Estimated
Tue 04:05:00 AM -9.2979 -60.2783 139° Southeast  Level Estimated
Tue 04:06:00 AM -9.3972 -60.1895 139° Southeast  Level Estimated
Tue 04:07:00 AM -9.4965 -60.1007 139° Southeast  Level Estimated
Tue 04:08:00 AM -9.5958 -60.0119 139° Southeast  Level Estimated
Tue 04:09:00 AM -9.6950 -59.9230 139° Southeast  Level Estimated
Tue 04:10:00 AM -9.7943 -59.8341 139° Southeast  Level Estimated
Tue 04:11:00 AM -9.8935 -59.7451 139° Southeast  Level Estimated
Tue 04:12:00 AM -9.9927 -59.6560 139° Southeast  Level Estimated
Tue 04:13:00 AM -10.0918 -59.5669 139° Southeast  Level Estimated
Tue 04:14:00 AM -10.1910 -59.4777 138° Southeast  Level Estimated
Tue 04:15:00 AM -10.2901 -59.3885 138° Southeast  Level Estimated
Tue 04:16:00 AM -10.3892 -59.2993 138° Southeast  Level Estimated
Tue 04:17:00 AM -10.4882 -59.2099 138° Southeast  Level Estimated
Tue 04:18:00 AM -10.5873 -59.1205 138° Southeast  Level Estimated
Tue 04:19:00 AM -10.6863 -59.0311 138° Southeast  Level Estimated
Tue 04:20:00 AM -10.7853 -58.9416 138° Southeast  Level Estimated
Tue 04:21:00 AM -10.8842 -58.8520 138° Southeast  Level Estimated
Tue 04:22:00 AM -10.9832 -58.7624 138° Southeast  Level Estimated
Tue 04:23:00 AM -11.0821 -58.6727 138° Southeast  Level Estimated
Tue 04:24:00 AM -11.1810 -58.5830 138° Southeast  Level Estimated
Tue 04:25:00 AM -11.2798 -58.4932 138° Southeast  Level Estimated
Tue 04:26:00 AM -11.3786 -58.4033 138° Southeast  Level Estimated
Tue 04:27:00 AM -11.4774 -58.3134 138° Southeast  Level Estimated
Tue 04:28:00 AM -11.5762 -58.2234 138° Southeast  Level Estimated
Tue 04:29:00 AM -11.6750 -58.1334 138° Southeast  Level Estimated
Tue 04:30:00 AM -11.7737 -58.0433 138° Southeast  Level Estimated
Tue 04:31:00 AM -11.8724 -57.9531 138° Southeast  Level Estimated
Tue 04:32:00 AM -11.9710 -57.8628 138° Southeast  Level Estimated
Tue 04:33:00 AM -12.0697 -57.7725 138° Southeast  Level Estimated
Tue 04:34:00 AM -12.1683 -57.6821 138° Southeast  Level Estimated
Tue 04:35:00 AM -12.2668 -57.5917 138° Southeast  Level Estimated
Tue 04:36:00 AM -12.3654 -57.5012 138° Southeast  Level Estimated
Tue 04:37:00 AM -12.4639 -57.4106 138° Southeast  Level Estimated
Tue 04:38:00 AM -12.5624 -57.3199 138° Southeast  Level Estimated
Tue 04:39:00 AM -12.6608 -57.2292 138° Southeast  Level Estimated
Tue 04:40:00 AM -12.7592 -57.1384 138° Southeast  Level Estimated
Tue 04:41:00 AM -12.8576 -57.0476 138° Southeast  Level Estimated
Tue 04:42:00 AM -12.9562 -56.9565 138° Southeast  Level Estimated
Tue 04:43:00 AM -13.0547 -56.8653 138° Southeast  Level Estimated
Tue 04:44:00 AM -13.1531 -56.7741 138° Southeast  Level Estimated
Tue 04:45:00 AM -13.2516 -56.6828 138° Southeast  Level Estimated
Tue 04:46:00 AM -13.3500 -56.5914 138° Southeast  Level Estimated
Tue 04:47:00 AM -13.4483 -56.4999 138° Southeast  Level Estimated
Tue 04:48:00 AM -13.5467 -56.4084 138° Southeast  Level Estimated
Tue 04:49:00 AM -13.6450 -56.3168 138° Southeast  Level Estimated
Tue 04:50:00 AM -13.7433 -56.2251 138° Southeast  Level Estimated
Tue 04:51:00 AM -13.8415 -56.1333 138° Southeast  Level Estimated
Tue 04:52:00 AM -13.9397 -56.0415 138° Southeast  Level Estimated
Tue 04:53:00 AM -14.0379 -55.9495 138° Southeast  Level Estimated
Tue 04:54:00 AM -14.1360 -55.8575 138° Southeast  Level Estimated
Tue 04:55:00 AM -14.2341 -55.7655 138° Southeast  Level Estimated
Tue 04:56:00 AM -14.3322 -55.6733 138° Southeast  Level Estimated
Tue 04:57:00 AM -14.4302 -55.5811 138° Southeast  Level Estimated
Tue 04:58:00 AM -14.5282 -55.4887 138° Southeast  Level Estimated
Tue 04:59:00 AM -14.6262 -55.3963 138° Southeast  Level Estimated
Tue 05:00:00 AM -14.7241 -55.3038 138° Southeast  Level Estimated
Tue 05:01:00 AM -14.8220 -55.2113 138° Southeast  Level Estimated
Tue 05:02:00 AM -14.9199 -55.1186 138° Southeast  Level Estimated
Tue 05:03:00 AM -15.0177 -55.0259 138° Southeast  Level Estimated
Tue 05:04:00 AM -15.1154 -54.9331 138° Southeast  Level Estimated
Tue 05:05:00 AM -15.2132 -54.8402 137° Southeast  Level Estimated
Tue 05:06:00 AM -15.3109 -54.7472 137° Southeast  Level Estimated
Tue 05:07:00 AM -15.4085 -54.6541 137° Southeast  Level Estimated
Tue 05:08:00 AM -15.5062 -54.5609 137° Southeast  Level Estimated
Tue 05:09:00 AM -15.6037 -54.4677 137° Southeast  Level Estimated
Tue 05:10:00 AM -15.7013 -54.3743 137° Southeast  Level Estimated
Tue 05:11:00 AM -15.7988 -54.2809 137° Southeast  Level Estimated
Tue 05:12:00 AM -15.8962 -54.1874 137° Southeast  Level Estimated
Tue 05:13:00 AM -15.9937 -54.0938 137° Southeast  Level Estimated
Tue 05:14:00 AM -16.0910 -54.0000 137° Southeast  Level Estimated
Tue 05:15:00 AM -16.1884 -53.9062 137° Southeast  Level Estimated
Tue 05:16:00 AM -16.2857 -53.8124 137° Southeast  Level Estimated
Tue 05:17:00 AM -16.3829 -53.7184 137° Southeast  Level Estimated
Tue 05:18:00 AM -16.4802 -53.6243 137° Southeast  Level Estimated
Tue 05:19:00 AM -16.5773 -53.5301 137° Southeast  Level Estimated
Tue 05:20:00 AM -16.6744 -53.4359 137° Southeast  Level Estimated
Tue 05:21:00 AM -16.7715 -53.3415 137° Southeast  Level Estimated
Tue 05:22:00 AM -16.8686 -53.2470 137° Southeast  Level Estimated
Tue 05:23:00 AM -16.9656 -53.1525 137° Southeast  Level Estimated
Tue 05:24:00 AM -17.0625 -53.0578 137° Southeast  Level Estimated
Tue 05:25:00 AM -17.1595 -52.9631 137° Southeast  Level Estimated
Tue 05:26:00 AM -17.2563 -52.8682 137° Southeast  Level Estimated
Tue 05:27:00 AM -17.3532 -52.7733 137° Southeast  Level Estimated
Tue 05:28:00 AM -17.4499 -52.6782 137° Southeast  Level Estimated
Tue 05:29:00 AM -17.5467 -52.5831 137° Southeast  Level Estimated
Tue 05:30:00 AM -17.6434 -52.4878 137° Southeast  Level Estimated
Tue 05:31:00 AM -17.7400 -52.3925 137° Southeast  Level Estimated
Tue 05:32:00 AM -17.8366 -52.2970 137° Southeast  Level Estimated
Tue 05:32:02 AM -19.0390 -50.5740 137° Southeast 39,000  Level FlightAware ADS-B
Tue 05:32:42 AM -19.1040 -50.5040 135° Southeast 39,000 -306 Level FlightAware ADS-B
Tue 05:33:27 AM -19.1780 -50.4250 135° Southeast 39,000 -313 Level FlightAware ADS-B
Tue 05:34:06 AM -19.2410 -50.3560 134° Southeast 39,000 -321 Level FlightAware ADS-B
Tue 05:34:44 AM -19.3040 -50.2880 134° Southeast 39,000 -328 Level FlightAware ADS-B
Tue 05:35:24 AM -19.3680 -50.2180 134° Southeast 39,000 -335 Level FlightAware ADS-B
Tue 05:36:08 AM -19.4420 -50.1380 134° Southeast 39,000 -343 Level FlightAware ADS-B
Tue 05:36:47 AM -19.5030 -50.0720 134° Southeast 39,000 -353 Level FlightAware ADS-B
Tue 05:37:32 AM -19.5770 -49.9910 134° Southeast 39,000 -362 Level FlightAware ADS-B
Tue 05:38:12 AM -19.6440 -49.9180 134° Southeast 39,000 -373 Level FlightAware ADS-B
Tue 05:38:54 AM -19.7100 -49.8460 134° Southeast 39,000 -383 Level FlightAware ADS-B
Tue 05:39:38 AM -19.7810 -49.7670 134° Southeast 39,000 -394 Level FlightAware ADS-B
Tue 05:40:18 AM -19.8460 -49.6960 134° Southeast 39,000 -406 Level FlightAware ADS-B
Tue 05:41:03 AM -19.9170 -49.6180 134° Southeast 39,000 -418 Level FlightAware ADS-B
Tue 05:41:42 AM -19.9810 -49.5480 134° Southeast 39,000 -433 Level FlightAware ADS-B
Tue 05:42:23 AM -20.0470 -49.4760 134° Southeast 39,000 -446 Level FlightAware ADS-B
Tue 05:43:06 AM -20.1180 -49.3970 134° Southeast 39,000 -461 Level FlightAware ADS-B
Tue 05:43:51 AM -20.1880 -49.3190 134° Southeast 39,000 -478 Level FlightAware ADS-B
Tue 05:44:31 AM -20.2520 -49.2490 134° Southeast 39,000 -497 Level FlightAware ADS-B
Tue 05:45:15 AM -20.3230 -49.1690 133° Southeast 39,000 -515 Level FlightAware ADS-B
Tue 05:45:56 AM -20.3900 -49.0950 134° Southeast 39,000 -537 Level FlightAware ADS-B
Tue 05:46:31 AM -20.4480 -49.0310 134° Southeast 39,000 -558 Level FlightAware ADS-B
Tue 05:47:13 AM -20.5150 -48.9560 134° Southeast 39,000 -578 Level FlightAware ADS-B
Tue 05:47:55 AM -20.5840 -48.8800 134° Southeast 39,000 -605 Level FlightAware ADS-B
Tue 05:48:29 AM -20.6370 -48.8200 133° Southeast 39,000 -633 Level FlightAware ADS-B
Tue 05:49:11 AM -20.7070 -48.7420 134° Southeast 39,000 -658 Level FlightAware ADS-B
Tue 05:49:54 AM -20.7760 -48.6650 134° Southeast 39,000 -692 Level FlightAware ADS-B
Tue 05:50:36 AM -20.8440 -48.5880 133° Southeast 39,000 -731 Level FlightAware ADS-B
Tue 05:51:18 AM -20.9110 -48.5130 134° Southeast 39,000 -773 Level FlightAware ADS-B
Tue 05:51:58 AM -20.9770 -48.4390 134° Southeast 39,000 -820 Level FlightAware ADS-B
Tue 05:52:42 AM -21.0460 -48.3600 133° Southeast 39,000 -870 Level FlightAware ADS-B
Tue 05:53:22 AM -21.1110 -48.2870 134° Southeast 39,000 -934 Level FlightAware ADS-B
Tue 05:54:06 AM -21.1810 -48.2080 134° Southeast 39,000 -1,000 Level FlightAware ADS-B
Tue 05:54:48 AM -21.2490 -48.1300 133° Southeast 39,000 -1,085 Level FlightAware ADS-B
Tue 05:55:28 AM -21.3140 -48.0570 134° Southeast 39,000 -1,180 Level FlightAware ADS-B
Tue 05:56:12 AM -21.3840 -47.9770 133° Southeast 39,000 -1,288 Level FlightAware ADS-B
Tue 05:56:55 AM -21.4540 -47.8980 134° Southeast 39,000 -1,431 Level FlightAware ADS-B
Tue 05:57:36 AM -21.5210 -47.8210 133° Southeast 38,900 -1,607 Descending FlightAware ADS-B
Tue 05:58:16 AM -21.5870 -47.7460 133° Southeast 38,000 -1,800 Descending FlightAware ADS-B
Tue 05:59:00 AM -21.6580 -47.6650 133° Southeast 37,000 -1,867 Descending FlightAware ADS-B
Tue 05:59:40 AM -21.7250 -47.5880 133° Southeast 35,100 -1,965 Descending FlightAware ADS-B
Tue 06:02:00 AM -21.9903 -47.4163 149° Southeast  Level Estimated
Tue 06:02:46 AM -22.0090 -47.2990 149° Southeast 419 482 29,600  Level FlightAware ADS-B
Tue 06:03:26 AM -22.0740 -47.2700 158° South 28,600 -1,905 Descending FlightAware ADS-B
Tue 06:04:08 AM -22.1730 -47.2300 159° South 26,300 -1,969 Descending FlightAware ADS-B
Tue 06:04:52 AM -22.2460 -47.1990 159° South 25,200 -1,710 Descending FlightAware ADS-B
Tue 06:05:32 AM -22.3080 -47.1730 159° South 24,100 -1,765 Descending FlightAware ADS-B
Tue 06:06:12 AM -22.3680 -47.1480 159° South 22,900 -1,800 Descending FlightAware ADS-B
Tue 06:06:58 AM -22.4350 -47.1190 158° South 21,400 -1,800 Descending FlightAware ADS-B
Tue 06:07:42 AM -22.5220 -47.1210 181° South 329 379 20,200 -1,037 Descending FlightAware ADS-B
Tue 06:08:19 AM -22.5510 -47.0700 122° Southeast 327 376 20,000 -711 Descending FlightAware ADS-B
Tue 06:08:58 AM -22.6060 -47.0460 158° South 327 376 19,300 -1,291 Descending FlightAware ADS-B
Tue 06:09:38 AM -22.6600 -47.0230 159° South 327 376 18,300 -1,500 Descending FlightAware ADS-B
Tue 06:10:18 AM -22.7170 -46.9990 159° South 327 376 17,300 -1,425 Descending FlightAware ADS-B
Tue 06:10:58 AM -22.7710 -46.9760 159° South 327 376 16,400 -1,364 Descending FlightAware ADS-B
Tue 06:12:30 AM -22.8880 -46.9270 159° South 327 376 14,300 -1,565 Descending FlightAware ADS-B
Tue 06:13:16 AM -22.9590 -46.8960 158° South 327 376 12,800 -1,814 Descending FlightAware ADS-B
Tue 06:13:56 AM -23.0130 -46.8740 159° South 327 376 11,700 -1,615 Descending FlightAware ADS-B
Tue 06:14:34 AM -23.0600 -46.8540 159° South 327 376 10,700 -1,086 Descending FlightAware ADS-B
Tue 06:15:41 AM -23.1460 -46.8580 182° South 271 312 9,800 -779 Descending FlightAware ADS-B
Tue 06:16:45 AM -23.1900 -46.7820 122° Southeast 288 331 9,000 -640 Descending FlightAware ADS-B
Tue 06:16:56 AM -23.1960 -46.7680 115° Southeast 287 330 9,000  Level FlightAware ADS-B
Tue 06:17:24 AM -23.2190 -46.7120 114° Southeast 289 333 9,000  Level FlightAware ADS-B
Tue 06:17:52 AM -23.2350 -46.6750 115° Southeast 286 329 9,000 -667 Level FlightAware ADS-B
Tue 06:18:18 AM -23.2500 -46.6410 116° Southeast 285 328 8,400 -1,421 Descending FlightAware ADS-B
Tue 06:18:30 AM -23.2580 -46.6300 128° Southeast 280 322 8,100 -1,200 Descending FlightAware ADS-B
Tue 06:18:38 AM -23.2670 -46.6220 141° Southeast 281 323 8,000 -120 Descending FlightAware ADS-B
Tue 06:19:20 AM -23.2910 -46.5980 137° Southeast 281 323 8,000 -73 Level FlightAware ADS-B
Tue 06:20:00 AM -23.3120 -46.6360 239° Southwest 281 323 7,900 -780 Descending FlightAware ADS-B
Tue 06:21:00 AM -23.3400 -46.6860 239° Southwest 281 323 6,700 -977 Descending FlightAware ADS-B
Tue 06:21:26 AM -23.3630 -46.6910 191° South 281 323 6,500 -913 Descending FlightAware ADS-B
Tue 06:21:46 AM -23.3820 -46.6830 159° South 281 323 6,000 -875 Descending FlightAware ADS-B
Tue 06:22:14 AM -23.4080 -46.6700 155° Southeast 281 323 5,800 -643 Descending FlightAware ADS-B
Tue 06:22:42 AM -23.4310 -46.6570 153° Southeast 281 323 5,400 -964 Descending FlightAware ADS-B
Tue 06:23:10 AM -23.4420 -46.6290 113° Southeast 281 323 4,900 -875 Descending FlightAware ADS-B
Tue 06:23:30 AM -23.4490 -46.6090 111° Southeast 281 323 4,700 -667 Descending FlightAware ADS-B
Tue 06:23:46 AM -23.4530 -46.5940 106° East 281 323 4,500 -419 Descending FlightAware ADS-B
Tue 06:24:13 AM -23.4490 -46.5690 80° East 281 323 4,400 -500 Descending FlightAware ADS-B
Tue 06:24:34 AM -23.4450 -46.5560 71° East 281 323 4,100 -1,015 Descending FlightAware ADS-B
Tue 06:25:18 AM -23.4550 -46.5490 147° Southeast 150 173 3,300 -882 Descending FlightAware ADS-B
Tue 06:25:42 AM -23.4510 -46.5310 76° East 150 173 3,100 -632 Descending FlightAware ADS-B
Tue 06:25:56 AM -23.4480 -46.5210 72° East 147 169 2,900 -837 Descending FlightAware ADS-B
Tue 06:26:25 AM -23.4430 -46.5020 74° East 147 169 2,500 -814 Descending FlightAware ADS-B
Tue 06:26:55 AM -23.4370 -46.4800 73° East 137 158 2,100 -800 Descending FlightAware ADS-B
Tue 06:27:15 AM -23.4340 -46.4700 72° East 78 90 -6,300 Descending FlightAware ADS-B
Tue 06:27:48 AM -23.4320 -46.4610 76° East 72 83  Level FlightAware ADS-B

Login

Don't have an account? Register now (free) for customized features, flight alerts, and more!